sensor_id;sensor_type;location;lat;lon;timestamp;temperature;humidity
52979;DHT22;63430;53.186;6.598;2023-05-10T00:01:55;13.30;99.90
52979;DHT22;63430;53.186;6.598;2023-05-10T00:04:00;13.30;99.90
52979;DHT22;63430;53.186;6.598;2023-05-10T00:06:03;13.30;99.90
52979;DHT22;63430;53.186;6.598;2023-05-10T00:08:06;13.20;99.90
52979;DHT22;63430;53.186;6.598;2023-05-10T00:10:16;13.20;99.90
52979;DHT22;63430;53.186;6.598;2023-05-10T00:12:19;13.20;99.90
52979;DHT22;63430;53.186;6.598;2023-05-10T00:14:22;13.10;99.90
52979;DHT22;63430;53.186;6.598;2023-05-10T00:16:27;13.10;99.90
52979;DHT22;63430;53.186;6.598;2023-05-10T00:18:30;13.00;99.90
52979;DHT22;63430;53.186;6.598;2023-05-10T00:20:35;13.10;99.90
52979;DHT22;63430;53.186;6.598;2023-05-10T00:22:38;13.00;99.90
52979;DHT22;63430;53.186;6.598;2023-05-10T00:24:41;13.00;99.90
52979;DHT22;63430;53.186;6.598;2023-05-10T00:26:43;13.00;99.90
52979;DHT22;63430;53.186;6.598;2023-05-10T00:28:46;13.60;99.90
52979;DHT22;63430;53.186;6.598;2023-05-10T00:30:49;13.10;99.90
52979;DHT22;63430;53.186;6.598;2023-05-10T00:32:51;12.90;99.90
52979;DHT22;63430;53.186;6.598;2023-05-10T00:34:54;12.90;99.90
52979;DHT22;63430;53.186;6.598;2023-05-10T00:37:12;12.90;99.90
52979;DHT22;63430;53.186;6.598;2023-05-10T00:39:14;12.90;99.90
52979;DHT22;63430;53.186;6.598;2023-05-10T00:41:17;12.90;99.90
52979;DHT22;63430;53.186;6.598;2023-05-10T00:43:20;12.90;99.90
52979;DHT22;63430;53.186;6.598;2023-05-10T00:45:24;12.80;99.90
52979;DHT22;63430;53.186;6.598;2023-05-10T00:47:27;12.80;99.90
52979;DHT22;63430;53.186;6.598;2023-05-10T00:49:31;12.90;99.90
52979;DHT22;63430;53.186;6.598;2023-05-10T00:51:33;12.90;99.90
52979;DHT22;63430;53.186;6.598;2023-05-10T00:53:39;12.90;99.90
52979;DHT22;63430;53.186;6.598;2023-05-10T00:55:42;12.80;99.90
52979;DHT22;63430;53.186;6.598;2023-05-10T00:57:45;12.90;99.90
52979;DHT22;63430;53.186;6.598;2023-05-10T00:59:50;12.90;99.90
52979;DHT22;63430;53.186;6.598;2023-05-10T01:01:53;12.90;99.90
52979;DHT22;63430;53.186;6.598;2023-05-10T01:03:59;12.90;99.90
52979;DHT22;63430;53.186;6.598;2023-05-10T01:06:05;12.80;99.90
52979;DHT22;63430;53.186;6.598;2023-05-10T01:08:11;12.80;99.90
52979;DHT22;63430;53.186;6.598;2023-05-10T01:10:16;12.80;99.90
52979;DHT22;63430;53.186;6.598;2023-05-10T01:12:19;12.80;99.90
52979;DHT22;63430;53.186;6.598;2023-05-10T01:14:24;12.80;99.90
52979;DHT22;63430;53.186;6.598;2023-05-10T01:16:29;12.70;99.90
52979;DHT22;63430;53.186;6.598;2023-05-10T01:18:34;12.80;99.90
52979;DHT22;63430;53.186;6.598;2023-05-10T01:20:41;12.80;99.90
52979;DHT22;63430;53.186;6.598;2023-05-10T01:23:11;12.80;99.90
52979;DHT22;63430;53.186;6.598;2023-05-10T01:25:37;12.70;99.90
52979;DHT22;63430;53.186;6.598;2023-05-10T01:28:16;12.70;99.90
52979;DHT22;63430;53.186;6.598;2023-05-10T01:33:01;12.70;99.90
52979;DHT22;63430;53.186;6.598;2023-05-10T01:35:21;12.70;99.90
52979;DHT22;63430;53.186;6.598;2023-05-10T01:37:31;12.70;99.90
52979;DHT22;63430;53.186;6.598;2023-05-10T01:39:41;12.70;99.90
52979;DHT22;63430;53.186;6.598;2023-05-10T01:41:49;12.70;99.90
52979;DHT22;63430;53.186;6.598;2023-05-10T01:43:59;12.60;99.90
52979;DHT22;63430;53.186;6.598;2023-05-10T01:46:07;12.70;99.90
52979;DHT22;63430;53.186;6.598;2023-05-10T01:48:16;12.70;99.90
52979;DHT22;63430;53.186;6.598;2023-05-10T01:50:26;12.60;99.90
52979;DHT22;63430;53.186;6.598;2023-05-10T01:52:35;12.60;99.90
52979;DHT22;63430;53.186;6.598;2023-05-10T01:54:42;12.60;99.90
52979;DHT22;63430;53.186;6.598;2023-05-10T01:56:49;12.60;99.90
52979;DHT22;63430;53.186;6.598;2023-05-10T01:58:53;12.60;99.90
52979;DHT22;63430;53.186;6.598;2023-05-10T02:00:56;12.60;99.90
52979;DHT22;63430;53.186;6.598;2023-05-10T02:03:05;12.60;99.90
52979;DHT22;63430;53.186;6.598;2023-05-10T02:05:13;12.60;99.90
52979;DHT22;63430;53.186;6.598;2023-05-10T02:07:16;12.60;99.90
52979;DHT22;63430;53.186;6.598;2023-05-10T02:09:20;12.60;99.90
52979;DHT22;63430;53.186;6.598;2023-05-10T02:11:25;12.60;99.90
52979;DHT22;63430;53.186;6.598;2023-05-10T02:13:32;12.60;99.90
52979;DHT22;63430;53.186;6.598;2023-05-10T02:15:35;12.60;99.90
52979;DHT22;63430;53.186;6.598;2023-05-10T02:17:42;12.50;99.90
52979;DHT22;63430;53.186;6.598;2023-05-10T02:19:47;12.50;99.90
52979;DHT22;63430;53.186;6.598;2023-05-10T02:21:54;12.50;99.90
52979;DHT22;63430;53.186;6.598;2023-05-10T02:23:58;12.50;99.90
52979;DHT22;63430;53.186;6.598;2023-05-10T02:26:04;12.50;99.90
52979;DHT22;63430;53.186;6.598;2023-05-10T02:28:08;12.50;99.90
52979;DHT22;63430;53.186;6.598;2023-05-10T02:30:12;13.10;99.90
52979;DHT22;63430;53.186;6.598;2023-05-10T02:32:16;12.20;99.90
52979;DHT22;63430;53.186;6.598;2023-05-10T02:34:22;12.50;99.90
52979;DHT22;63430;53.186;6.598;2023-05-10T02:36:25;12.50;99.90
52979;DHT22;63430;53.186;6.598;2023-05-10T02:38:33;12.40;99.90
52979;DHT22;63430;53.186;6.598;2023-05-10T02:40:37;12.50;99.90
52979;DHT22;63430;53.186;6.598;2023-05-10T02:42:44;12.50;99.90
52979;DHT22;63430;53.186;6.598;2023-05-10T02:44:48;12.40;99.90
52979;DHT22;63430;53.186;6.598;2023-05-10T02:46:53;12.40;99.90
52979;DHT22;63430;53.186;6.598;2023-05-10T02:48:58;12.40;99.90
52979;DHT22;63430;53.186;6.598;2023-05-10T02:51:04;12.40;99.90
52979;DHT22;63430;53.186;6.598;2023-05-10T02:53:11;12.40;99.90
52979;DHT22;63430;53.186;6.598;2023-05-10T02:55:22;12.50;99.90
52979;DHT22;63430;53.186;6.598;2023-05-10T02:57:33;12.40;99.90
52979;DHT22;63430;53.186;6.598;2023-05-10T02:59:36;12.40;99.90
52979;DHT22;63430;53.186;6.598;2023-05-10T03:01:39;12.40;99.90
52979;DHT22;63430;53.186;6.598;2023-05-10T03:03:42;12.40;99.90
52979;DHT22;63430;53.186;6.598;2023-05-10T03:05:45;12.40;99.90
52979;DHT22;63430;53.186;6.598;2023-05-10T03:07:47;12.40;99.90
52979;DHT22;63430;53.186;6.598;2023-05-10T03:09:50;12.40;99.90
52979;DHT22;63430;53.186;6.598;2023-05-10T03:12:03;12.40;99.90
52979;DHT22;63430;53.186;6.598;2023-05-10T03:14:16;12.40;99.90
52979;DHT22;63430;53.186;6.598;2023-05-10T03:16:29;12.40;99.90
52979;DHT22;63430;53.186;6.598;2023-05-10T03:18:38;12.40;99.90
52979;DHT22;63430;53.186;6.598;2023-05-10T03:20:49;12.60;99.90
52979;DHT22;63430;53.186;6.598;2023-05-10T03:22:55;12.40;99.90
52979;DHT22;63430;53.186;6.598;2023-05-10T03:25:06;12.60;99.90
52979;DHT22;63430;53.186;6.598;2023-05-10T03:27:13;12.40;99.90
52979;DHT22;63430;53.186;6.598;2023-05-10T03:29:17;12.40;99.90
52979;DHT22;63430;53.186;6.598;2023-05-10T03:31:21;12.30;99.90
52979;DHT22;63430;53.186;6.598;2023-05-10T03:33:24;12.40;99.90
52979;DHT22;63430;53.186;6.598;2023-05-10T03:35:28;12.40;99.90
52979;DHT22;63430;53.186;6.598;2023-05-10T03:37:30;12.40;99.90
52979;DHT22;63430;53.186;6.598;2023-05-10T03:39:33;12.40;99.90
52979;DHT22;63430;53.186;6.598;2023-05-10T03:41:37;12.40;99.90
52979;DHT22;63430;53.186;6.598;2023-05-10T03:43:42;12.40;99.90
52979;DHT22;63430;53.186;6.598;2023-05-10T03:45:45;12.40;99.90
52979;DHT22;63430;53.186;6.598;2023-05-10T03:47:47;12.40;99.90
52979;DHT22;63430;53.186;6.598;2023-05-10T03:49:50;12.40;99.90
52979;DHT22;63430;53.186;6.598;2023-05-10T03:51:53;12.40;99.90
52979;DHT22;63430;53.186;6.598;2023-05-10T03:53:56;12.40;99.90
52979;DHT22;63430;53.186;6.598;2023-05-10T03:55:59;12.40;99.90
52979;DHT22;63430;53.186;6.598;2023-05-10T03:58:01;12.50;99.90
52979;DHT22;63430;53.186;6.598;2023-05-10T04:00:11;12.40;99.90
52979;DHT22;63430;53.186;6.598;2023-05-10T04:02:17;12.40;99.90
52979;DHT22;63430;53.186;6.598;2023-05-10T04:04:19;12.40;99.90
52979;DHT22;63430;53.186;6.598;2023-05-10T04:06:24;12.50;99.90
52979;DHT22;63430;53.186;6.598;2023-05-10T04:08:27;12.40;99.90
52979;DHT22;63430;53.186;6.598;2023-05-10T04:10:31;12.50;99.90
52979;DHT22;63430;53.186;6.598;2023-05-10T04:12:35;12.40;99.90
52979;DHT22;63430;53.186;6.598;2023-05-10T04:14:37;12.40;99.90
52979;DHT22;63430;53.186;6.598;2023-05-10T04:16:43;12.40;99.90
52979;DHT22;63430;53.186;6.598;2023-05-10T04:18:46;12.40;99.90
52979;DHT22;63430;53.186;6.598;2023-05-10T04:20:50;12.40;99.90
52979;DHT22;63430;53.186;6.598;2023-05-10T04:22:55;12.40;99.90
52979;DHT22;63430;53.186;6.598;2023-05-10T04:25:01;12.40;99.90
52979;DHT22;63430;53.186;6.598;2023-05-10T04:27:03;12.40;99.90
52979;DHT22;63430;53.186;6.598;2023-05-10T04:29:07;12.40;99.90
52979;DHT22;63430;53.186;6.598;2023-05-10T04:31:10;12.40;99.90
52979;DHT22;63430;53.186;6.598;2023-05-10T04:33:15;12.40;99.90
52979;DHT22;63430;53.186;6.598;2023-05-10T04:35:20;12.30;99.90
52979;DHT22;63430;53.186;6.598;2023-05-10T04:37:22;12.30;99.90
52979;DHT22;63430;53.186;6.598;2023-05-10T04:39:25;12.30;99.90
52979;DHT22;63430;53.186;6.598;2023-05-10T04:41:28;12.30;99.90
52979;DHT22;63430;53.186;6.598;2023-05-10T04:43:30;12.40;99.90
52979;DHT22;63430;53.186;6.598;2023-05-10T04:45:33;12.30;99.90
52979;DHT22;63430;53.186;6.598;2023-05-10T04:47:36;12.30;99.90
52979;DHT22;63430;53.186;6.598;2023-05-10T04:49:42;12.40;99.90
52979;DHT22;63430;53.186;6.598;2023-05-10T04:51:44;12.30;99.90
52979;DHT22;63430;53.186;6.598;2023-05-10T04:54:07;12.30;99.90
52979;DHT22;63430;53.186;6.598;2023-05-10T04:56:29;12.20;99.90
52979;DHT22;63430;53.186;6.598;2023-05-10T04:58:52;12.20;99.90
52979;DHT22;63430;53.186;6.598;2023-05-10T05:01:14;12.60;99.90
52979;DHT22;63430;53.186;6.598;2023-05-10T05:03:37;12.20;99.90
52979;DHT22;63430;53.186;6.598;2023-05-10T05:06:03;12.20;99.90
52979;DHT22;63430;53.186;6.598;2023-05-10T05:08:25;12.20;99.90
52979;DHT22;63430;53.186;6.598;2023-05-10T05:10:48;12.20;99.90
52979;DHT22;63430;53.186;6.598;2023-05-10T05:12:52;12.50;99.90
52979;DHT22;63430;53.186;6.598;2023-05-10T05:14:55;12.10;99.90
52979;DHT22;63430;53.186;6.598;2023-05-10T05:16:59;12.10;99.90
52979;DHT22;63430;53.186;6.598;2023-05-10T05:19:02;12.20;99.90
52979;DHT22;63430;53.186;6.598;2023-05-10T05:21:15;12.20;99.90
52979;DHT22;63430;53.186;6.598;2023-05-10T05:23:18;12.20;99.90
52979;DHT22;63430;53.186;6.598;2023-05-10T05:25:23;12.20;99.90
52979;DHT22;63430;53.186;6.598;2023-05-10T05:27:26;12.20;99.90
52979;DHT22;63430;53.186;6.598;2023-05-10T05:29:30;12.20;99.90
52979;DHT22;63430;53.186;6.598;2023-05-10T05:31:33;12.20;99.90
52979;DHT22;63430;53.186;6.598;2023-05-10T05:33:35;12.20;99.90
52979;DHT22;63430;53.186;6.598;2023-05-10T05:35:38;12.20;99.90
52979;DHT22;63430;53.186;6.598;2023-05-10T05:37:43;12.20;99.90
52979;DHT22;63430;53.186;6.598;2023-05-10T05:39:46;12.20;99.90
52979;DHT22;63430;53.186;6.598;2023-05-10T05:41:48;12.20;99.90
52979;DHT22;63430;53.186;6.598;2023-05-10T05:43:51;12.20;99.90
52979;DHT22;63430;53.186;6.598;2023-05-10T05:45:53;12.20;99.90
52979;DHT22;63430;53.186;6.598;2023-05-10T05:47:56;12.20;99.90
52979;DHT22;63430;53.186;6.598;2023-05-10T05:49:59;12.20;99.90
52979;DHT22;63430;53.186;6.598;2023-05-10T05:52:02;12.20;99.90
52979;DHT22;63430;53.186;6.598;2023-05-10T05:54:08;12.20;99.90
52979;DHT22;63430;53.186;6.598;2023-05-10T05:56:10;12.20;99.90
52979;DHT22;63430;53.186;6.598;2023-05-10T05:58:15;12.30;99.90
52979;DHT22;63430;53.186;6.598;2023-05-10T06:00:18;12.30;99.90
52979;DHT22;63430;53.186;6.598;2023-05-10T06:02:21;12.30;99.90
52979;DHT22;63430;53.186;6.598;2023-05-10T06:04:23;12.30;99.90
52979;DHT22;63430;53.186;6.598;2023-05-10T06:06:26;12.30;99.90
52979;DHT22;63430;53.186;6.598;2023-05-10T06:08:29;12.30;99.90
52979;DHT22;63430;53.186;6.598;2023-05-10T06:10:34;12.30;99.90
52979;DHT22;63430;53.186;6.598;2023-05-10T06:12:37;12.50;99.90
52979;DHT22;63430;53.186;6.598;2023-05-10T06:14:39;12.30;99.90
52979;DHT22;63430;53.186;6.598;2023-05-10T06:16:41;12.40;99.90
52979;DHT22;63430;53.186;6.598;2023-05-10T06:18:44;12.30;99.90
52979;DHT22;63430;53.186;6.598;2023-05-10T06:20:47;12.40;99.90
52979;DHT22;63430;53.186;6.598;2023-05-10T06:22:50;12.50;99.90
52979;DHT22;63430;53.186;6.598;2023-05-10T06:24:55;12.40;99.90
52979;DHT22;63430;53.186;6.598;2023-05-10T06:27:01;12.40;99.90
52979;DHT22;63430;53.186;6.598;2023-05-10T06:29:04;12.40;99.90
52979;DHT22;63430;53.186;6.598;2023-05-10T06:31:07;12.40;99.90
52979;DHT22;63430;53.186;6.598;2023-05-10T06:33:09;12.40;99.90
52979;DHT22;63430;53.186;6.598;2023-05-10T06:35:12;12.40;99.90
52979;DHT22;63430;53.186;6.598;2023-05-10T06:37:15;12.30;99.90
52979;DHT22;63430;53.186;6.598;2023-05-10T06:39:18;12.30;99.90
52979;DHT22;63430;53.186;6.598;2023-05-10T06:41:23;12.30;99.90
52979;DHT22;63430;53.186;6.598;2023-05-10T06:43:28;12.30;99.90
52979;DHT22;63430;53.186;6.598;2023-05-10T06:45:31;12.30;99.90
52979;DHT22;63430;53.186;6.598;2023-05-10T06:47:33;12.30;99.90
52979;DHT22;63430;53.186;6.598;2023-05-10T06:49:40;12.30;99.90
52979;DHT22;63430;53.186;6.598;2023-05-10T06:51:43;12.30;99.90
52979;DHT22;63430;53.186;6.598;2023-05-10T06:53:46;12.30;99.90
52979;DHT22;63430;53.186;6.598;2023-05-10T06:55:49;12.30;99.90
52979;DHT22;63430;53.186;6.598;2023-05-10T06:57:52;12.30;99.90
52979;DHT22;63430;53.186;6.598;2023-05-10T06:59:59;12.30;99.90
52979;DHT22;63430;53.186;6.598;2023-05-10T07:02:03;12.30;99.90
52979;DHT22;63430;53.186;6.598;2023-05-10T07:04:06;12.30;99.90
52979;DHT22;63430;53.186;6.598;2023-05-10T07:06:09;12.20;99.90
52979;DHT22;63430;53.186;6.598;2023-05-10T07:08:32;12.30;99.90
52979;DHT22;63430;53.186;6.598;2023-05-10T07:10:34;12.20;99.90
52979;DHT22;63430;53.186;6.598;2023-05-10T07:12:38;12.20;99.90
52979;DHT22;63430;53.186;6.598;2023-05-10T07:14:41;12.30;99.90
52979;DHT22;63430;53.186;6.598;2023-05-10T07:16:46;12.30;99.90
52979;DHT22;63430;53.186;6.598;2023-05-10T07:18:49;12.20;99.90
52979;DHT22;63430;53.186;6.598;2023-05-10T07:20:52;12.20;99.90
52979;DHT22;63430;53.186;6.598;2023-05-10T07:22:56;12.20;99.90
52979;DHT22;63430;53.186;6.598;2023-05-10T07:24:58;12.20;99.90
52979;DHT22;63430;53.186;6.598;2023-05-10T07:27:01;12.50;99.90
52979;DHT22;63430;53.186;6.598;2023-05-10T07:29:04;12.20;99.90
52979;DHT22;63430;53.186;6.598;2023-05-10T07:31:06;12.40;99.90
52979;DHT22;63430;53.186;6.598;2023-05-10T07:33:13;12.30;99.90
52979;DHT22;63430;53.186;6.598;2023-05-10T07:35:16;12.30;99.90
52979;DHT22;63430;53.186;6.598;2023-05-10T07:37:22;12.40;99.90
52979;DHT22;63430;53.186;6.598;2023-05-10T07:39:25;12.40;99.90
52979;DHT22;63430;53.186;6.598;2023-05-10T07:41:29;12.40;99.90
52979;DHT22;63430;53.186;6.598;2023-05-10T07:43:33;12.50;99.90
52979;DHT22;63430;53.186;6.598;2023-05-10T07:45:36;12.50;99.90
52979;DHT22;63430;53.186;6.598;2023-05-10T07:47:39;12.60;99.90
52979;DHT22;63430;53.186;6.598;2023-05-10T07:49:44;12.60;99.90
52979;DHT22;63430;53.186;6.598;2023-05-10T07:51:46;12.60;99.90
52979;DHT22;63430;53.186;6.598;2023-05-10T07:53:49;12.70;99.90
52979;DHT22;63430;53.186;6.598;2023-05-10T07:55:51;12.60;99.90
52979;DHT22;63430;53.186;6.598;2023-05-10T07:57:56;12.60;99.90
52979;DHT22;63430;53.186;6.598;2023-05-10T07:59:59;12.60;99.90
52979;DHT22;63430;53.186;6.598;2023-05-10T08:02:01;12.60;99.90
52979;DHT22;63430;53.186;6.598;2023-05-10T08:04:04;12.60;99.90
52979;DHT22;63430;53.186;6.598;2023-05-10T08:06:09;12.60;99.90
52979;DHT22;63430;53.186;6.598;2023-05-10T08:08:12;12.70;99.90
52979;DHT22;63430;53.186;6.598;2023-05-10T08:10:14;12.60;99.90
52979;DHT22;63430;53.186;6.598;2023-05-10T08:12:17;12.60;99.90
52979;DHT22;63430;53.186;6.598;2023-05-10T08:14:19;12.70;99.90
52979;DHT22;63430;53.186;6.598;2023-05-10T08:16:22;12.60;99.90
52979;DHT22;63430;53.186;6.598;2023-05-10T08:18:25;12.60;99.90
52979;DHT22;63430;53.186;6.598;2023-05-10T08:20:27;12.60;99.90
52979;DHT22;63430;53.186;6.598;2023-05-10T08:22:32;12.50;99.90
52979;DHT22;63430;53.186;6.598;2023-05-10T08:24:36;12.50;99.90
52979;DHT22;63430;53.186;6.598;2023-05-10T08:26:40;12.50;99.90
52979;DHT22;63430;53.186;6.598;2023-05-10T08:28:45;12.60;99.90
52979;DHT22;63430;53.186;6.598;2023-05-10T08:30:49;13.30;99.90
52979;DHT22;63430;53.186;6.598;2023-05-10T08:32:51;12.60;99.90
52979;DHT22;63430;53.186;6.598;2023-05-10T08:34:54;12.50;99.90
52979;DHT22;63430;53.186;6.598;2023-05-10T08:36:57;12.60;99.90
52979;DHT22;63430;53.186;6.598;2023-05-10T08:39:02;12.60;99.90
52979;DHT22;63430;53.186;6.598;2023-05-10T08:41:05;12.60;99.90
52979;DHT22;63430;53.186;6.598;2023-05-10T08:43:10;12.60;99.90
52979;DHT22;63430;53.186;6.598;2023-05-10T08:45:14;12.70;99.90
52979;DHT22;63430;53.186;6.598;2023-05-10T08:47:18;12.70;99.90
52979;DHT22;63430;53.186;6.598;2023-05-10T08:49:21;12.70;99.90
52979;DHT22;63430;53.186;6.598;2023-05-10T08:51:25;12.70;99.90
52979;DHT22;63430;53.186;6.598;2023-05-10T08:53:31;12.80;99.90
52979;DHT22;63430;53.186;6.598;2023-05-10T08:55:38;12.80;99.90
52979;DHT22;63430;53.186;6.598;2023-05-10T08:57:41;12.80;99.90
52979;DHT22;63430;53.186;6.598;2023-05-10T08:59:43;12.70;99.90
52979;DHT22;63430;53.186;6.598;2023-05-10T09:01:47;12.80;99.90
52979;DHT22;63430;53.186;6.598;2023-05-10T09:03:51;12.70;99.90
52979;DHT22;63430;53.186;6.598;2023-05-10T09:05:54;12.70;99.90
52979;DHT22;63430;53.186;6.598;2023-05-10T09:07:59;12.70;99.90
52979;DHT22;63430;53.186;6.598;2023-05-10T09:10:06;12.70;99.90
52979;DHT22;63430;53.186;6.598;2023-05-10T09:12:11;12.80;99.90
52979;DHT22;63430;53.186;6.598;2023-05-10T09:14:14;12.80;99.90
52979;DHT22;63430;53.186;6.598;2023-05-10T09:16:17;13.10;99.90
52979;DHT22;63430;53.186;6.598;2023-05-10T09:18:23;12.80;99.90
52979;DHT22;63430;53.186;6.598;2023-05-10T09:20:29;12.90;99.90
52979;DHT22;63430;53.186;6.598;2023-05-10T09:22:31;12.90;99.90
52979;DHT22;63430;53.186;6.598;2023-05-10T09:24:34;12.90;99.90
52979;DHT22;63430;53.186;6.598;2023-05-10T09:26:46;12.90;99.90
52979;DHT22;63430;53.186;6.598;2023-05-10T09:28:55;12.90;99.90
52979;DHT22;63430;53.186;6.598;2023-05-10T09:30:58;13.00;99.90
52979;DHT22;63430;53.186;6.598;2023-05-10T09:33:01;13.00;99.90
52979;DHT22;63430;53.186;6.598;2023-05-10T09:35:07;13.00;99.90
52979;DHT22;63430;53.186;6.598;2023-05-10T09:37:09;13.10;99.90
52979;DHT22;63430;53.186;6.598;2023-05-10T09:39:12;13.10;99.90
52979;DHT22;63430;53.186;6.598;2023-05-10T09:41:18;13.20;99.90
52979;DHT22;63430;53.186;6.598;2023-05-10T09:43:21;13.20;99.90
52979;DHT22;63430;53.186;6.598;2023-05-10T09:45:27;13.30;99.90
52979;DHT22;63430;53.186;6.598;2023-05-10T09:47:32;13.30;99.90
52979;DHT22;63430;53.186;6.598;2023-05-10T09:49:39;13.30;99.90
52979;DHT22;63430;53.186;6.598;2023-05-10T09:51:43;13.40;99.90
52979;DHT22;63430;53.186;6.598;2023-05-10T09:53:46;13.50;99.90
52979;DHT22;63430;53.186;6.598;2023-05-10T09:55:48;13.60;99.90
52979;DHT22;63430;53.186;6.598;2023-05-10T09:57:59;13.70;99.90
52979;DHT22;63430;53.186;6.598;2023-05-10T10:00:03;13.70;99.90
52979;DHT22;63430;53.186;6.598;2023-05-10T10:02:17;13.80;99.90
52979;DHT22;63430;53.186;6.598;2023-05-10T10:04:20;13.80;99.90
52979;DHT22;63430;53.186;6.598;2023-05-10T10:06:23;13.80;99.90
52979;DHT22;63430;53.186;6.598;2023-05-10T10:08:31;13.70;99.90
52979;DHT22;63430;53.186;6.598;2023-05-10T10:10:34;13.70;99.90
52979;DHT22;63430;53.186;6.598;2023-05-10T10:12:38;13.70;99.90
52979;DHT22;63430;53.186;6.598;2023-05-10T10:14:41;14.30;99.90
52979;DHT22;63430;53.186;6.598;2023-05-10T10:16:45;14.60;99.90
52979;DHT22;63430;53.186;6.598;2023-05-10T10:19:17;13.80;99.90
52979;DHT22;63430;53.186;6.598;2023-05-10T10:21:23;13.90;99.90
52979;DHT22;63430;53.186;6.598;2023-05-10T10:23:27;14.00;99.90
52979;DHT22;63430;53.186;6.598;2023-05-10T10:25:30;14.10;99.90
52979;DHT22;63430;53.186;6.598;2023-05-10T10:27:44;14.20;99.90
52979;DHT22;63430;53.186;6.598;2023-05-10T10:29:57;14.20;99.90
52979;DHT22;63430;53.186;6.598;2023-05-10T10:32:12;14.30;99.90
52979;DHT22;63430;53.186;6.598;2023-05-10T10:34:26;14.30;99.90
52979;DHT22;63430;53.186;6.598;2023-05-10T10:36:30;14.30;99.90
52979;DHT22;63430;53.186;6.598;2023-05-10T10:38:37;14.30;99.90
52979;DHT22;63430;53.186;6.598;2023-05-10T10:40:40;14.30;99.90
52979;DHT22;63430;53.186;6.598;2023-05-10T10:42:46;14.30;99.90
52979;DHT22;63430;53.186;6.598;2023-05-10T10:44:49;14.30;99.90
52979;DHT22;63430;53.186;6.598;2023-05-10T10:46:59;14.30;99.90
52979;DHT22;63430;53.186;6.598;2023-05-10T10:49:09;14.30;99.90
52979;DHT22;63430;53.186;6.598;2023-05-10T10:51:17;14.30;99.90
52979;DHT22;63430;53.186;6.598;2023-05-10T10:53:20;14.30;99.90
52979;DHT22;63430;53.186;6.598;2023-05-10T10:55:24;14.30;99.90
52979;DHT22;63430;53.186;6.598;2023-05-10T10:57:31;14.30;99.90
52979;DHT22;63430;53.186;6.598;2023-05-10T10:59:34;14.40;99.90
52979;DHT22;63430;53.186;6.598;2023-05-10T11:01:41;14.40;99.90
52979;DHT22;63430;53.186;6.598;2023-05-10T11:04:18;14.50;99.90
52979;DHT22;63430;53.186;6.598;2023-05-10T11:06:34;14.80;99.90
52979;DHT22;63430;53.186;6.598;2023-05-10T11:08:42;14.70;99.90
52979;DHT22;63430;53.186;6.598;2023-05-10T11:10:54;14.70;99.90
52979;DHT22;63430;53.186;6.598;2023-05-10T11:13:10;14.80;99.90
52979;DHT22;63430;53.186;6.598;2023-05-10T11:15:13;14.80;99.90
52979;DHT22;63430;53.186;6.598;2023-05-10T11:17:27;14.90;99.90
52979;DHT22;63430;53.186;6.598;2023-05-10T11:19:30;15.20;99.90
52979;DHT22;63430;53.186;6.598;2023-05-10T11:21:47;15.30;99.90
52979;DHT22;63430;53.186;6.598;2023-05-10T11:23:51;14.90;99.90
52979;DHT22;63430;53.186;6.598;2023-05-10T11:25:54;14.90;99.90
52979;DHT22;63430;53.186;6.598;2023-05-10T11:28:03;15.00;99.90
52979;DHT22;63430;53.186;6.598;2023-05-10T11:30:08;14.90;99.90
52979;DHT22;63430;53.186;6.598;2023-05-10T11:32:12;14.90;99.90
52979;DHT22;63430;53.186;6.598;2023-05-10T11:34:25;14.90;99.90
52979;DHT22;63430;53.186;6.598;2023-05-10T11:36:35;14.90;99.90
52979;DHT22;63430;53.186;6.598;2023-05-10T11:38:42;14.80;99.90
52979;DHT22;63430;53.186;6.598;2023-05-10T11:40:44;14.80;99.90
52979;DHT22;63430;53.186;6.598;2023-05-10T11:42:47;14.80;99.90
52979;DHT22;63430;53.186;6.598;2023-05-10T11:44:49;14.70;99.90
52979;DHT22;63430;53.186;6.598;2023-05-10T11:46:52;14.70;99.90
52979;DHT22;63430;53.186;6.598;2023-05-10T11:48:57;14.60;99.90
52979;DHT22;63430;53.186;6.598;2023-05-10T11:51:02;15.20;99.90
52979;DHT22;63430;53.186;6.598;2023-05-10T11:53:08;14.60;99.90
52979;DHT22;63430;53.186;6.598;2023-05-10T11:55:13;15.00;99.90
52979;DHT22;63430;53.186;6.598;2023-05-10T11:57:18;14.50;99.90
52979;DHT22;63430;53.186;6.598;2023-05-10T11:59:21;14.50;99.90
52979;DHT22;63430;53.186;6.598;2023-05-10T12:01:24;14.50;99.90
52979;DHT22;63430;53.186;6.598;2023-05-10T12:03:29;14.40;99.90
52979;DHT22;63430;53.186;6.598;2023-05-10T12:05:32;14.40;99.90
52979;DHT22;63430;53.186;6.598;2023-05-10T12:07:36;14.40;99.90
52979;DHT22;63430;53.186;6.598;2023-05-10T12:09:42;14.40;99.90
52979;DHT22;63430;53.186;6.598;2023-05-10T12:11:48;14.40;99.90
52979;DHT22;63430;53.186;6.598;2023-05-10T12:13:53;14.40;99.90
52979;DHT22;63430;53.186;6.598;2023-05-10T12:15:57;14.40;99.90
52979;DHT22;63430;53.186;6.598;2023-05-10T12:18:01;14.40;99.90
52979;DHT22;63430;53.186;6.598;2023-05-10T12:20:15;14.40;99.90
52979;DHT22;63430;53.186;6.598;2023-05-10T12:22:20;14.40;99.90
52979;DHT22;63430;53.186;6.598;2023-05-10T12:24:24;14.40;99.90
52979;DHT22;63430;53.186;6.598;2023-05-10T12:26:27;14.40;99.90
52979;DHT22;63430;53.186;6.598;2023-05-10T12:28:33;14.40;99.90
52979;DHT22;63430;53.186;6.598;2023-05-10T12:30:37;14.30;99.90
52979;DHT22;63430;53.186;6.598;2023-05-10T12:32:40;14.30;99.90
52979;DHT22;63430;53.186;6.598;2023-05-10T12:34:43;14.70;99.90
52979;DHT22;63430;53.186;6.598;2023-05-10T12:36:50;14.30;99.90
52979;DHT22;63430;53.186;6.598;2023-05-10T12:38:59;14.30;99.90
52979;DHT22;63430;53.186;6.598;2023-05-10T12:41:05;14.40;99.90
52979;DHT22;63430;53.186;6.598;2023-05-10T12:43:09;14.40;99.90
52979;DHT22;63430;53.186;6.598;2023-05-10T12:45:17;14.40;99.90
52979;DHT22;63430;53.186;6.598;2023-05-10T12:47:19;14.40;99.90
52979;DHT22;63430;53.186;6.598;2023-05-10T12:49:22;14.50;99.90
52979;DHT22;63430;53.186;6.598;2023-05-10T12:51:24;14.50;99.90
52979;DHT22;63430;53.186;6.598;2023-05-10T12:53:28;14.60;99.90
52979;DHT22;63430;53.186;6.598;2023-05-10T12:55:31;14.70;99.90
52979;DHT22;63430;53.186;6.598;2023-05-10T12:57:33;14.90;99.90
52979;DHT22;63430;53.186;6.598;2023-05-10T12:59:36;14.80;99.90
52979;DHT22;63430;53.186;6.598;2023-05-10T13:01:42;14.90;99.90
52979;DHT22;63430;53.186;6.598;2023-05-10T13:03:44;15.00;99.90
52979;DHT22;63430;53.186;6.598;2023-05-10T13:05:49;15.00;99.90
52979;DHT22;63430;53.186;6.598;2023-05-10T13:07:52;15.10;99.90
52979;DHT22;63430;53.186;6.598;2023-05-10T13:09:54;15.30;99.90
52979;DHT22;63430;53.186;6.598;2023-05-10T13:11:57;15.30;99.90
52979;DHT22;63430;53.186;6.598;2023-05-10T13:14:00;15.10;99.90
52979;DHT22;63430;53.186;6.598;2023-05-10T13:16:02;15.60;99.90